Keomah, Iowa
Current Conditions -  °F | °C
As of 2:55 PM on Sunday 23 Nov 2014 (Local Time) from KOOA Reporting Station
Light Rain Light Rain  
Wind Chill: 52°   Ceiling: 400
Heat Index: 52°   Visibility: 4mi
Dew Point: 51°   Wind: 3mph
Humidity: 97%   Direction: 190°S
Pressure: 29.33"   Gusts: NA
Location:  41.3158°N, 92.6258°W
Report Text: KOOA 232055Z AUTO 19003KT 4SM -RA OVC004 11/11 A2933 RMK AO2 P0002 60015 T01110107
Loading
Personal Weather Stations






























Interactive Weather Map New forecast layout! Learn more

10-Day Weather Forecast

Advertisements
Track Severe Weather on mobile